sensor_id;sensor_type;location;lat;lon;timestamp;pressure;altitude;pressure_sealevel;temperature;humidity
27980;BME280;15315;50.836;4.430;2023-02-13T00:03:26;103092.22;;;10.48;76.21
27980;BME280;15315;50.836;4.430;2023-02-13T00:13:28;103092.50;;;10.39;75.20
27980;BME280;15315;50.836;4.430;2023-02-13T00:23:30;103097.69;;;9.86;76.64
27980;BME280;15315;50.836;4.430;2023-02-13T00:33:30;103079.66;;;9.58;77.39
27980;BME280;15315;50.836;4.430;2023-02-13T00:43:31;103095.53;;;9.68;77.31
27980;BME280;15315;50.836;4.430;2023-02-13T00:53:34;103093.38;;;9.81;77.05
27980;BME280;15315;50.836;4.430;2023-02-13T01:03:37;103093.22;;;9.55;75.94
27980;BME280;15315;50.836;4.430;2023-02-13T01:13:40;103100.84;;;9.39;76.63
27980;BME280;15315;50.836;4.430;2023-02-13T01:23:40;103105.09;;;9.48;75.64
27980;BME280;15315;50.836;4.430;2023-02-13T01:33:41;103091.94;;;9.37;74.76
27980;BME280;15315;50.836;4.430;2023-02-13T01:54:09;103099.97;;;9.03;76.15
27980;BME280;15315;50.836;4.430;2023-02-13T02:04:31;103098.72;;;8.83;76.85
27980;BME280;15315;50.836;4.430;2023-02-13T02:14:33;103092.81;;;8.69;77.36
27980;BME280;15315;50.836;4.430;2023-02-13T02:55:51;103064.88;;;8.74;75.94
27980;BME280;15315;50.836;4.430;2023-02-13T03:05:53;103070.38;;;8.70;74.62
27980;BME280;15315;50.836;4.430;2023-02-13T03:16:15;103074.44;;;8.50;74.33
27980;BME280;15315;50.836;4.430;2023-02-13T03:37:07;103069.09;;;8.11;75.84
27980;BME280;15315;50.836;4.430;2023-02-13T03:47:35;103071.47;;;8.24;75.71
27980;BME280;15315;50.836;4.430;2023-02-13T03:57:38;103076.84;;;8.24;75.11
27980;BME280;15315;50.836;4.430;2023-02-13T04:07:58;103065.34;;;8.18;74.62
27980;BME280;15315;50.836;4.430;2023-02-13T04:18:19;103076.63;;;7.93;75.92
27980;BME280;15315;50.836;4.430;2023-02-13T04:28:21;103067.72;;;7.93;75.73
27980;BME280;15315;50.836;4.430;2023-02-13T04:38:21;103064.75;;;8.04;73.26
27980;BME280;15315;50.836;4.430;2023-02-13T04:48:22;103074.72;;;8.00;73.80
27980;BME280;15315;50.836;4.430;2023-02-13T04:58:22;103072.56;;;8.16;72.91
27980;BME280;15315;50.836;4.430;2023-02-13T05:08:23;103071.03;;;8.06;72.44
27980;BME280;15315;50.836;4.430;2023-02-13T05:18:23;103070.56;;;7.85;72.92
27980;BME280;15315;50.836;4.430;2023-02-13T05:28:24;103076.00;;;7.81;73.11
27980;BME280;15315;50.836;4.430;2023-02-13T05:38:43;103074.34;;;7.75;72.83
27980;BME280;15315;50.836;4.430;2023-02-13T05:48:43;103079.97;;;7.62;73.29
27980;BME280;15315;50.836;4.430;2023-02-13T05:58:44;103090.66;;;7.63;73.37
27980;BME280;15315;50.836;4.430;2023-02-13T06:08:44;103081.66;;;7.67;72.35
27980;BME280;15315;50.836;4.430;2023-02-13T06:18:45;103077.91;;;7.30;73.44
27980;BME280;15315;50.836;4.430;2023-02-13T06:28:45;103078.34;;;7.09;74.68
27980;BME280;15315;50.836;4.430;2023-02-13T06:38:45;103087.50;;;6.96;75.19
27980;BME280;15315;50.836;4.430;2023-02-13T06:48:46;103082.16;;;6.96;75.70
27980;BME280;15315;50.836;4.430;2023-02-13T06:58:46;103089.69;;;7.23;74.45
27980;BME280;15315;50.836;4.430;2023-02-13T07:08:47;103081.53;;;7.27;74.88
27980;BME280;15315;50.836;4.430;2023-02-13T07:18:47;103099.44;;;7.27;74.68
27980;BME280;15315;50.836;4.430;2023-02-13T07:28:48;103094.19;;;7.68;74.82
27980;BME280;15315;50.836;4.430;2023-02-13T07:38:48;103104.50;;;7.44;75.65
27980;BME280;15315;50.836;4.430;2023-02-13T07:48:51;103101.31;;;7.68;75.04
27980;BME280;15315;50.836;4.430;2023-02-13T07:58:51;103107.22;;;7.88;74.46
27980;BME280;15315;50.836;4.430;2023-02-13T08:08:52;103105.69;;;8.16;75.01
27980;BME280;15315;50.836;4.430;2023-02-13T08:19:12;103103.00;;;8.16;76.59
27980;BME280;15315;50.836;4.430;2023-02-13T08:29:12;103103.19;;;8.47;76.97
27980;BME280;15315;50.836;4.430;2023-02-13T08:39:13;103103.50;;;9.07;76.67
27980;BME280;15315;50.836;4.430;2023-02-13T08:49:13;103101.34;;;9.53;76.99
27980;BME280;15315;50.836;4.430;2023-02-13T08:59:14;103099.09;;;10.00;77.46
27980;BME280;15315;50.836;4.430;2023-02-13T09:09:14;103101.03;;;10.24;81.02
27980;BME280;15315;50.836;4.430;2023-02-13T09:19:15;103103.72;;;10.81;81.10
27980;BME280;15315;50.836;4.430;2023-02-13T09:29:15;103103.03;;;10.46;86.73
27980;BME280;15315;50.836;4.430;2023-02-13T09:39:16;103102.53;;;10.34;91.06
27980;BME280;15315;50.836;4.430;2023-02-13T09:49:19;103112.56;;;10.58;91.27
27980;BME280;15315;50.836;4.430;2023-02-13T09:59:44;103111.72;;;10.84;90.37
27980;BME280;15315;50.836;4.430;2023-02-13T10:20:29;103093.81;;;12.28;81.91
27980;BME280;15315;50.836;4.430;2023-02-13T10:30:33;103081.28;;;11.79;83.95
27980;BME280;15315;50.836;4.430;2023-02-13T10:40:39;103081.84;;;11.65;83.52
27980;BME280;15315;50.836;4.430;2023-02-13T10:50:58;103076.66;;;11.83;83.53
27980;BME280;15315;50.836;4.430;2023-02-13T11:01:06;103083.25;;;12.44;81.69
27980;BME280;15315;50.836;4.430;2023-02-13T11:11:31;103069.16;;;13.01;79.14
27980;BME280;15315;50.836;4.430;2023-02-13T11:21:35;103056.97;;;13.90;76.84
27980;BME280;15315;50.836;4.430;2023-02-13T11:31:37;103042.00;;;14.56;73.48
27980;BME280;15315;50.836;4.430;2023-02-13T11:41:41;103033.66;;;14.42;71.47
27980;BME280;15315;50.836;4.430;2023-02-13T11:51:51;103016.94;;;14.68;70.46
27980;BME280;15315;50.836;4.430;2023-02-13T12:12:29;102993.88;;;14.76;69.75
27980;BME280;15315;50.836;4.430;2023-02-13T13:35:21;102931.91;;;14.67;69.54
27980;BME280;15315;50.836;4.430;2023-02-13T14:06:03;102931.50;;;15.73;66.82
27980;BME280;15315;50.836;4.430;2023-02-13T14:26:38;102911.09;;;15.01;69.63
27980;BME280;15315;50.836;4.430;2023-02-13T14:47:04;102887.69;;;15.14;69.85
27980;BME280;15315;50.836;4.430;2023-02-13T14:57:12;102888.22;;;15.37;68.00
27980;BME280;15315;50.836;4.430;2023-02-13T15:07:20;102867.75;;;15.30;67.81
27980;BME280;15315;50.836;4.430;2023-02-13T15:17:25;102867.66;;;15.65;67.27
27980;BME280;15315;50.836;4.430;2023-02-13T15:27:29;102857.63;;;15.50;66.63
27980;BME280;15315;50.836;4.430;2023-02-13T15:37:30;102862.16;;;15.33;66.81
27980;BME280;15315;50.836;4.430;2023-02-13T15:47:31;102866.22;;;15.42;66.43
27980;BME280;15315;50.836;4.430;2023-02-13T15:57:32;102864.31;;;15.60;65.82
27980;BME280;15315;50.836;4.430;2023-02-13T16:07:49;102866.22;;;15.42;65.68
27980;BME280;15315;50.836;4.430;2023-02-13T16:17:50;102871.66;;;15.42;65.86
27980;BME280;15315;50.836;4.430;2023-02-13T16:27:53;102874.38;;;15.09;66.89
27980;BME280;15315;50.836;4.430;2023-02-13T16:37:57;102886.91;;;15.12;66.71
27980;BME280;15315;50.836;4.430;2023-02-13T16:48:00;102882.06;;;14.86;67.93
27980;BME280;15315;50.836;4.430;2023-02-13T16:58:04;102885.25;;;14.76;68.73
27980;BME280;15315;50.836;4.430;2023-02-13T17:08:04;102877.47;;;14.86;67.70
27980;BME280;15315;50.836;4.430;2023-02-13T17:18:05;102882.53;;;14.76;67.32
27980;BME280;15315;50.836;4.430;2023-02-13T17:28:14;102900.72;;;14.40;69.11
27980;BME280;15315;50.836;4.430;2023-02-13T17:38:14;102898.53;;;14.12;69.38
27980;BME280;15315;50.836;4.430;2023-02-13T17:48:15;102894.13;;;13.93;70.75
27980;BME280;15315;50.836;4.430;2023-02-13T17:58:18;102904.56;;;13.65;71.58
27980;BME280;15315;50.836;4.430;2023-02-13T18:08:19;102905.78;;;13.76;70.37
27980;BME280;15315;50.836;4.430;2023-02-13T18:18:19;102906.75;;;13.75;70.15
27980;BME280;15315;50.836;4.430;2023-02-13T18:28:20;102911.28;;;13.37;71.97
27980;BME280;15315;50.836;4.430;2023-02-13T18:38:20;102910.47;;;12.96;72.77
27980;BME280;15315;50.836;4.430;2023-02-13T18:48:21;102909.38;;;13.01;71.74
27980;BME280;15315;50.836;4.430;2023-02-13T18:58:22;102895.25;;;13.13;70.64
27980;BME280;15315;50.836;4.430;2023-02-13T19:08:22;102902.00;;;12.84;71.59
27980;BME280;15315;50.836;4.430;2023-02-13T19:18:26;102911.41;;;12.95;70.68
27980;BME280;15315;50.836;4.430;2023-02-13T19:28:29;102906.16;;;12.72;70.94
27980;BME280;15315;50.836;4.430;2023-02-13T19:38:30;102916.31;;;12.67;70.55
27980;BME280;15315;50.836;4.430;2023-02-13T19:48:36;102914.09;;;12.35;71.84
27980;BME280;15315;50.836;4.430;2023-02-13T19:58:37;102909.81;;;12.29;71.35
27980;BME280;15315;50.836;4.430;2023-02-13T20:08:38;102904.88;;;12.19;71.79
27980;BME280;15315;50.836;4.430;2023-02-13T20:18:39;102909.59;;;11.92;72.72
27980;BME280;15315;50.836;4.430;2023-02-13T20:28:41;102901.59;;;12.11;71.30
27980;BME280;15315;50.836;4.430;2023-02-13T20:38:42;102906.16;;;11.89;71.47
27980;BME280;15315;50.836;4.430;2023-02-13T20:48:44;102919.13;;;11.79;71.66
27980;BME280;15315;50.836;4.430;2023-02-13T20:58:47;102922.19;;;11.48;72.79
27980;BME280;15315;50.836;4.430;2023-02-13T21:08:48;102913.41;;;11.42;72.77
27980;BME280;15315;50.836;4.430;2023-02-13T21:18:51;102922.25;;;11.47;71.71
27980;BME280;15315;50.836;4.430;2023-02-13T21:28:53;102927.78;;;11.42;72.08
27980;BME280;15315;50.836;4.430;2023-02-13T21:38:54;102923.50;;;11.13;72.06
27980;BME280;15315;50.836;4.430;2023-02-13T21:48:56;102931.25;;;10.99;73.78
27980;BME280;15315;50.836;4.430;2023-02-13T21:58:57;102925.84;;;10.99;72.79
27980;BME280;15315;50.836;4.430;2023-02-13T22:09:00;102920.66;;;10.93;72.68
27980;BME280;15315;50.836;4.430;2023-02-13T22:19:02;102910.06;;;10.87;72.94
27980;BME280;15315;50.836;4.430;2023-02-13T22:29:07;102913.06;;;10.80;73.36
27980;BME280;15315;50.836;4.430;2023-02-13T22:39:14;102911.53;;;10.73;73.19
27980;BME280;15315;50.836;4.430;2023-02-13T22:49:15;102901.34;;;10.56;73.18
27980;BME280;15315;50.836;4.430;2023-02-13T22:59:15;102892.69;;;10.46;71.70
27980;BME280;15315;50.836;4.430;2023-02-13T23:09:15;102903.00;;;10.34;72.56
27980;BME280;15315;50.836;4.430;2023-02-13T23:19:16;102895.78;;;10.08;72.60
27980;BME280;15315;50.836;4.430;2023-02-13T23:29:16;102910.66;;;9.94;72.91
27980;BME280;15315;50.836;4.430;2023-02-13T23:39:17;102908.88;;;9.93;73.30
27980;BME280;15315;50.836;4.430;2023-02-13T23:49:19;102901.59;;;9.96;72.85
27980;BME280;15315;50.836;4.430;2023-02-13T23:59:21;102894.81;;;9.84;73.54
